createdAt,value
2022-09-16T00:00:48.044Z,94.19
2022-09-16T00:03:17.932Z,94.43
2022-09-16T00:05:50.392Z,94.88
2022-09-16T00:08:18.937Z,95.45
2022-09-16T00:10:46.230Z,94.89
2022-09-16T00:13:14.158Z,94.27
2022-09-16T00:15:51.279Z,94.14
2022-09-16T00:18:20.580Z,93.78
2022-09-16T00:20:51.114Z,92.24
2022-09-16T00:23:19.368Z,91.48
2022-09-16T00:25:54.181Z,92.31
2022-09-16T00:28:22.349Z,93.13
2022-09-16T00:30:50.333Z,93.13
2022-09-16T00:33:18.434Z,93.73
2022-09-16T00:35:46.507Z,93.79
2022-09-16T00:38:13.884Z,93.53
2022-09-16T00:40:49.849Z,93.14
2022-09-16T00:43:19.214Z,92.89
2022-09-16T00:45:57.150Z,92.52
2022-09-16T00:48:27.611Z,91.93
2022-09-16T00:50:59.954Z,92.11
2022-09-16T00:53:31.502Z,91.06
2022-09-16T00:56:01.056Z,91.00
2022-09-16T00:58:31.032Z,90.62
2022-09-16T01:00:58.233Z,91.36
2022-09-16T01:03:26.333Z,91.05
2022-09-16T01:05:53.787Z,91.34
2022-09-16T01:08:21.088Z,90.98
2022-09-16T01:10:48.223Z,91.17
2022-09-16T01:13:16.308Z,92.13
2022-09-16T01:16:02.265Z,92.30
2022-09-16T01:18:38.161Z,92.64
2022-09-16T01:21:39.169Z,92.93
2022-09-16T01:24:12.013Z,92.49
2022-09-16T01:27:01.993Z,92.56
2022-09-16T01:29:58.548Z,93.43
2022-09-16T01:32:39.815Z,94.76
2022-09-16T01:35:09.899Z,95.17
2022-09-16T01:38:07.381Z,94.99
2022-09-16T01:40:58.170Z,94.11
2022-09-16T01:44:07.901Z,93.50
2022-09-16T01:46:40.673Z,94.00
2022-09-16T01:49:32.340Z,93.68
2022-09-16T01:52:21.075Z,93.21
2022-09-16T01:54:51.257Z,92.52
2022-09-16T01:57:32.348Z,92.11
2022-09-16T02:00:14.502Z,92.41
2022-09-16T02:02:53.482Z,91.59
2022-09-16T02:05:46.237Z,92.87
2022-09-16T02:08:19.185Z,93.59
2022-09-16T02:10:53.943Z,94.08
2022-09-16T02:13:30.284Z,94.04
2022-09-16T02:16:04.058Z,94.76
2022-09-16T02:18:37.298Z,93.61
2022-09-16T02:21:07.292Z,92.83
2022-09-16T02:23:50.771Z,92.84
2022-09-16T02:26:23.287Z,92.01
2022-09-16T02:28:53.916Z,92.42
2022-09-16T02:31:26.758Z,92.01
2022-09-16T02:34:08.092Z,92.68
2022-09-16T02:36:38.148Z,92.02
2022-09-16T02:39:10.051Z,91.47
2022-09-16T02:41:39.641Z,92.53
2022-09-16T02:44:08.800Z,92.83
2022-09-16T02:47:08.671Z,92.95
2022-09-16T02:49:51.377Z,93.04
2022-09-16T02:52:33.941Z,93.05
2022-09-16T02:55:15.094Z,93.45
2022-09-16T02:57:42.459Z,92.38
2022-09-16T03:00:10.370Z,91.88
2022-09-16T03:02:37.675Z,92.18
2022-09-16T03:05:06.077Z,92.28
2022-09-16T03:07:34.071Z,92.89
2022-09-16T03:10:01.308Z,94.26
2022-09-16T03:12:50.415Z,94.26
2022-09-16T03:15:42.422Z,94.32
2022-09-16T03:18:46.895Z,93.79
2022-09-16T03:21:28.900Z,94.88
2022-09-16T03:24:14.721Z,94.73
2022-09-16T03:27:00.780Z,94.48
2022-09-16T03:29:39.784Z,94.67
2022-09-16T03:32:21.940Z,95.10
2022-09-16T03:34:55.655Z,95.42
2022-09-16T03:37:27.438Z,95.63
2022-09-16T03:40:00.324Z,95.85
2022-09-16T03:42:27.453Z,95.77
2022-09-16T03:44:54.709Z,95.44
2022-09-16T03:47:21.805Z,96.01
2022-09-16T03:49:48.916Z,96.23
2022-09-16T03:52:18.630Z,96.73
2022-09-16T03:54:46.150Z,96.38
2022-09-16T03:57:13.202Z,96.01
2022-09-16T03:59:41.241Z,95.22
2022-09-16T04:02:08.310Z,92.94
2022-09-16T04:04:54.298Z,93.12
2022-09-16T04:07:21.382Z,93.47
2022-09-16T04:09:48.515Z,94.33
2022-09-16T04:12:15.590Z,94.06
2022-09-16T04:14:42.727Z,92.06
2022-09-16T04:17:09.891Z,90.84
2022-09-16T04:19:36.998Z,91.94
2022-09-16T04:22:04.105Z,93.48
2022-09-16T04:24:31.216Z,92.80
2022-09-16T04:26:58.421Z,91.87
2022-09-16T04:29:25.512Z,92.32
2022-09-16T04:31:52.583Z,91.30
2022-09-16T04:34:19.697Z,92.94
2022-09-16T04:36:46.943Z,93.01
2022-09-16T04:39:14.200Z,93.81
2022-09-16T04:41:41.596Z,94.15
2022-09-16T04:44:10.499Z,95.12
2022-09-16T04:46:37.650Z,94.91
2022-09-16T04:49:04.987Z,94.85
2022-09-16T04:51:33.002Z,95.03
2022-09-16T04:54:01.551Z,94.57
2022-09-16T04:56:31.582Z,95.30
2022-09-16T04:59:01.103Z,95.08
2022-09-16T05:01:33.907Z,95.93
2022-09-16T05:04:03.382Z,95.26
2022-09-16T05:06:36.740Z,93.48
2022-09-16T05:09:04.331Z,93.45
2022-09-16T05:11:37.139Z,93.10
2022-09-16T05:14:06.914Z,93.44
2022-09-16T05:16:34.572Z,93.78
2022-09-16T05:19:05.021Z,93.08
2022-09-16T05:21:35.399Z,93.66
2022-09-16T05:24:04.483Z,93.74
2022-09-16T05:26:32.804Z,93.07
2022-09-16T05:29:05.635Z,92.70
2022-09-16T05:31:36.328Z,93.14
2022-09-16T05:34:07.846Z,94.19
2022-09-16T05:36:37.760Z,94.77
2022-09-16T05:39:22.095Z,95.20
2022-09-16T05:41:56.939Z,94.52
2022-09-16T05:44:24.462Z,94.33
2022-09-16T05:46:51.945Z,94.52
2022-09-16T05:49:21.016Z,94.29
2022-09-16T05:51:49.294Z,94.52
2022-09-16T05:54:18.755Z,95.03
2022-09-16T05:56:47.204Z,95.28
2022-09-16T05:59:15.640Z,95.00
2022-09-16T06:01:43.257Z,95.86
2022-09-16T06:04:12.601Z,96.03
2022-09-16T06:06:41.887Z,95.99
2022-09-16T06:09:12.063Z,95.66
2022-09-16T06:11:42.011Z,95.48
2022-09-16T06:14:10.286Z,95.26
2022-09-16T06:16:38.337Z,94.17
2022-09-16T06:19:10.567Z,93.28
2022-09-16T06:21:38.369Z,92.87
2022-09-16T06:24:08.925Z,92.66
2022-09-16T06:26:37.335Z,93.48
2022-09-16T06:29:06.349Z,93.77
2022-09-16T06:31:34.438Z,94.09
2022-09-16T06:34:01.933Z,94.15
2022-09-16T06:36:32.384Z,94.54
2022-09-16T06:38:59.742Z,94.53
2022-09-16T06:41:26.800Z,93.71
2022-09-16T06:43:53.980Z,93.39
2022-09-16T06:46:26.196Z,93.25
2022-09-16T06:48:58.515Z,93.43
2022-09-16T06:51:29.891Z,93.46
2022-09-16T06:54:04.015Z,93.34
2022-09-16T06:56:31.179Z,93.75
2022-09-16T06:58:58.311Z,92.78
2022-09-16T07:01:28.466Z,92.90
2022-09-16T07:03:57.562Z,91.33
2022-09-16T07:06:49.539Z,91.30
2022-09-16T07:09:15.070Z,91.53
2022-09-16T07:11:42.269Z,91.28
2022-09-16T07:14:09.764Z,91.54
2022-09-16T07:16:36.891Z,90.15
2022-09-16T07:19:04.777Z,90.14
2022-09-16T07:21:31.997Z,90.10
2022-09-16T07:24:02.582Z,89.21
2022-09-16T07:26:31.153Z,88.86
2022-09-16T07:29:03.808Z,88.28
2022-09-16T07:31:34.343Z,87.63
2022-09-16T07:34:04.383Z,86.34
2022-09-16T07:36:33.765Z,84.88
2022-09-16T07:39:01.636Z,84.83
2022-09-16T07:41:32.533Z,84.02
2022-09-16T07:44:00.436Z,84.24
2022-09-16T07:46:29.995Z,82.81
2022-09-16T07:48:59.393Z,83.62
2022-09-16T07:51:28.015Z,82.99
2022-09-16T07:54:02.298Z,83.63
2022-09-16T07:56:31.613Z,84.22
2022-09-16T07:58:58.740Z,84.95
2022-09-16T08:01:26.213Z,83.25
2022-09-16T08:03:53.685Z,82.87
2022-09-16T08:06:23.700Z,81.86
2022-09-16T08:08:55.326Z,81.20
2022-09-16T08:11:23.044Z,80.45
2022-09-16T08:13:50.270Z,80.37
2022-09-16T08:16:19.709Z,79.89
2022-09-16T08:18:49.213Z,80.63
2022-09-16T08:21:21.654Z,80.49
2022-09-16T08:23:49.117Z,79.58
2022-09-16T08:26:17.931Z,79.16
2022-09-16T08:29:07.452Z,79.28
2022-09-16T08:31:33.827Z,78.73
2022-09-16T08:34:00.896Z,76.89
2022-09-16T08:36:28.077Z,77.83
2022-09-16T08:38:56.719Z,77.09
2022-09-16T08:41:33.646Z,75.20
2022-09-16T08:44:21.939Z,75.57
2022-09-16T08:46:51.969Z,76.13
2022-09-16T08:49:28.532Z,76.17
2022-09-16T08:51:57.250Z,76.37
2022-09-16T08:54:48.992Z,75.55
2022-09-16T08:57:20.598Z,77.05
2022-09-16T08:59:57.802Z,76.00
2022-09-16T09:02:38.874Z,75.74
2022-09-16T09:05:31.449Z,76.19
2022-09-16T09:08:29.717Z,76.91
2022-09-16T09:11:08.272Z,76.66
2022-09-16T09:14:10.637Z,77.32
2022-09-16T09:17:01.752Z,76.51
2022-09-16T09:19:53.107Z,76.57
2022-09-16T09:22:25.856Z,76.38
2022-09-16T09:25:10.894Z,76.31
2022-09-16T09:27:40.789Z,76.65
2022-09-16T09:30:33.824Z,76.67
2022-09-16T09:33:22.143Z,76.92
2022-09-16T09:36:11.807Z,76.42
2022-09-16T09:38:57.573Z,75.78
2022-09-16T09:41:36.825Z,76.15
2022-09-16T09:44:30.071Z,75.66
2022-09-16T09:47:03.530Z,75.82
2022-09-16T09:49:41.175Z,74.96
2022-09-16T09:52:16.671Z,75.16
2022-09-16T09:54:51.162Z,74.94
2022-09-16T09:57:33.145Z,74.86
2022-09-16T10:00:16.320Z,75.29
2022-09-16T10:02:49.648Z,73.97
2022-09-16T10:05:26.277Z,74.07
2022-09-16T10:07:57.567Z,73.49
2022-09-16T10:10:29.992Z,72.91
2022-09-16T10:13:08.057Z,72.23
2022-09-16T10:15:35.226Z,72.85
2022-09-16T10:18:13.725Z,71.73
2022-09-16T10:20:44.461Z,71.51
2022-09-16T10:23:19.709Z,70.69
2022-09-16T10:25:46.872Z,71.06
2022-09-16T10:28:26.743Z,71.65
2022-09-16T10:30:56.685Z,71.05
2022-09-16T10:33:37.421Z,70.49
2022-09-16T10:36:08.258Z,70.18
2022-09-16T10:38:42.555Z,70.13
2022-09-16T10:41:16.451Z,69.26
2022-09-16T10:43:56.729Z,69.22
2022-09-16T10:46:24.837Z,68.57
2022-09-16T10:48:57.294Z,68.61
2022-09-16T10:51:29.601Z,69.05
2022-09-16T10:53:59.784Z,69.18
2022-09-16T10:56:30.068Z,69.22
2022-09-16T10:59:10.540Z,69.39
2022-09-16T11:01:47.192Z,68.38
2022-09-16T11:04:18.331Z,68.41
2022-09-16T11:07:03.330Z,68.42
2022-09-16T11:09:44.389Z,68.33
2022-09-16T11:12:32.136Z,68.82
2022-09-16T11:15:20.014Z,68.97
2022-09-16T11:18:05.058Z,68.50
2022-09-16T11:20:50.193Z,68.28
2022-09-16T11:23:26.905Z,67.78
2022-09-16T11:25:53.939Z,67.22
2022-09-16T11:28:41.928Z,67.13
2022-09-16T11:31:12.066Z,67.05
2022-09-16T11:34:11.651Z,66.67
2022-09-16T11:37:07.015Z,67.25
2022-09-16T11:39:37.229Z,67.50
2022-09-16T11:42:24.108Z,67.71
2022-09-16T11:45:42.165Z,69.37
2022-09-16T11:48:24.088Z,68.46
2022-09-16T11:51:41.404Z,69.39
2022-09-16T11:56:56.246Z,68.98
2022-09-16T11:59:40.031Z,69.06
2022-09-16T12:02:17.035Z,70.38
2022-09-16T12:04:55.817Z,70.09
2022-09-16T12:07:46.287Z,69.89
2022-09-16T12:10:25.106Z,70.07
2022-09-16T12:13:15.638Z,70.46
2022-09-16T12:15:50.041Z,72.25
2022-09-16T12:18:21.845Z,73.89
2022-09-16T12:21:09.097Z,75.05
2022-09-16T12:23:43.228Z,74.71
2022-09-16T12:26:34.991Z,74.22
2022-09-16T12:29:33.584Z,76.26
2022-09-16T12:32:09.930Z,76.41
2022-09-16T12:34:43.643Z,77.41
2022-09-16T12:37:10.694Z,77.24
2022-09-16T12:39:38.529Z,77.68
2022-09-16T12:42:20.750Z,80.42
2022-09-16T12:44:50.574Z,80.80
2022-09-16T12:47:45.463Z,82.09
2022-09-16T12:50:13.190Z,81.88
2022-09-16T12:52:59.312Z,82.02
2022-09-16T12:55:50.666Z,81.69
2022-09-16T12:58:17.735Z,81.28
2022-09-16T13:01:00.268Z,83.01
2022-09-16T13:03:31.800Z,84.87
2022-09-16T13:06:07.541Z,85.45
2022-09-16T13:08:35.729Z,84.93
2022-09-16T13:14:00.160Z,83.12
2022-09-16T13:16:29.183Z,82.27
2022-09-16T13:19:23.808Z,83.35
2022-09-16T13:21:57.638Z,84.00
2022-09-16T13:24:39.246Z,85.16
2022-09-16T13:27:31.658Z,88.26
2022-09-16T13:30:13.669Z,89.66
2022-09-16T13:32:53.192Z,87.81
2022-09-16T13:35:21.052Z,86.47
2022-09-16T13:37:54.600Z,84.98
2022-09-16T13:40:21.829Z,82.84
2022-09-16T13:42:49.112Z,83.99
2022-09-16T13:45:34.109Z,85.30
2022-09-16T13:48:14.046Z,85.09
2022-09-16T13:50:45.061Z,83.21
2022-09-16T13:53:28.850Z,83.70
2022-09-16T13:56:20.563Z,83.47
2022-09-16T13:59:22.313Z,83.63
2022-09-16T14:02:29.545Z,85.15
2022-09-16T14:05:09.200Z,85.44
2022-09-16T14:07:56.551Z,86.42
2022-09-16T14:10:35.402Z,88.61
2022-09-16T14:13:14.580Z,90.92
2022-09-16T14:15:49.446Z,92.63
2022-09-16T14:18:21.277Z,93.76
2022-09-16T14:21:04.570Z,94.11
2022-09-16T14:23:33.820Z,93.79
2022-09-16T14:26:18.915Z,95.14
2022-09-16T14:28:46.496Z,95.88
2022-09-16T14:31:22.817Z,95.89
2022-09-16T14:33:57.130Z,95.03
2022-09-16T14:36:30.463Z,94.91
2022-09-16T14:39:11.900Z,95.45
2022-09-16T14:42:02.745Z,95.33
2022-09-16T14:44:47.986Z,95.09
2022-09-16T14:47:39.431Z,94.61
2022-09-16T14:50:21.132Z,95.23
2022-09-16T14:52:57.553Z,96.04
2022-09-16T14:55:30.426Z,96.51
2022-09-16T14:58:01.873Z,97.09
2022-09-16T15:00:38.768Z,97.06
2022-09-16T15:03:17.538Z,97.10
2022-09-16T15:05:47.588Z,96.72
2022-09-16T15:08:46.208Z,97.29
2022-09-16T15:11:43.549Z,96.61
2022-09-16T15:14:07.704Z,97.47
2022-09-16T15:16:44.255Z,97.44
2022-09-16T15:19:25.567Z,99.15
2022-09-16T15:21:53.552Z,99.78
2022-09-16T15:24:26.969Z,100.00
2022-09-16T15:26:55.411Z,100.00
2022-09-16T15:29:23.176Z,100.00
2022-09-16T15:31:51.393Z,100.00
2022-09-16T15:34:21.907Z,100.00
2022-09-16T15:36:57.376Z,100.00
2022-09-16T15:39:33.159Z,100.00
2022-09-16T15:42:13.369Z,100.00
2022-09-16T15:44:58.501Z,100.00
2022-09-16T15:47:29.395Z,100.00
2022-09-16T15:50:12.628Z,100.00
2022-09-16T15:53:03.536Z,100.00
2022-09-16T15:55:36.969Z,100.00
2022-09-16T15:58:16.902Z,100.00
2022-09-16T16:01:21.129Z,100.00
2022-09-16T16:03:56.747Z,100.00
2022-09-16T16:06:58.626Z,100.00
2022-09-16T16:09:30.486Z,100.00
2022-09-16T16:12:00.028Z,100.00
2022-09-16T16:14:32.286Z,100.00
2022-09-16T16:17:14.221Z,100.00
2022-09-16T16:19:43.267Z,100.00
2022-09-16T16:22:12.163Z,100.00
2022-09-16T16:24:40.148Z,100.00
2022-09-16T16:27:08.915Z,100.00
2022-09-16T16:29:36.360Z,100.00
2022-09-16T16:32:08.202Z,100.00
2022-09-16T16:34:41.522Z,100.00
2022-09-16T16:37:19.152Z,100.00
2022-09-16T16:39:55.974Z,100.00
2022-09-16T16:42:24.980Z,100.00
2022-09-16T16:44:52.459Z,100.00
2022-09-16T16:47:19.843Z,100.00
2022-09-16T16:49:51.391Z,100.00
2022-09-16T16:52:19.055Z,100.00
2022-09-16T16:54:46.832Z,100.00
2022-09-16T16:57:14.850Z,100.00
2022-09-16T16:59:43.662Z,100.00
2022-09-16T17:02:15.399Z,100.00
2022-09-16T17:04:43.516Z,100.00
2022-09-16T17:07:27.872Z,100.00
2022-09-16T17:09:57.512Z,100.00
2022-09-16T17:12:26.523Z,100.00
2022-09-16T17:14:54.223Z,100.00
2022-09-16T17:17:21.563Z,100.00
2022-09-16T17:19:48.820Z,100.00
2022-09-16T17:22:16.446Z,100.00
2022-09-16T17:24:43.639Z,100.00
2022-09-16T17:27:15.146Z,100.00
2022-09-16T17:29:42.646Z,100.00
2022-09-16T17:32:10.066Z,100.00
2022-09-16T17:34:38.749Z,100.00
2022-09-16T17:37:08.492Z,100.00
2022-09-16T17:39:36.067Z,100.00
2022-09-16T17:42:03.483Z,100.00
2022-09-16T17:44:31.020Z,100.00
2022-09-16T17:46:58.284Z,100.00
2022-09-16T17:49:26.103Z,100.00
2022-09-16T17:51:54.004Z,100.00
2022-09-16T17:54:22.294Z,100.00
2022-09-16T17:56:50.416Z,100.00
2022-09-16T17:59:18.970Z,100.00
2022-09-16T18:01:46.833Z,100.00
2022-09-16T18:04:14.021Z,100.00
2022-09-16T18:06:46.399Z,100.00
2022-09-16T18:09:16.417Z,100.00
2022-09-16T18:11:45.021Z,100.00
2022-09-16T18:14:23.714Z,100.00
2022-09-16T18:16:51.451Z,100.00
2022-09-16T18:19:19.499Z,100.00
2022-09-16T18:21:49.663Z,100.00
2022-09-16T18:24:17.148Z,100.00
2022-09-16T18:26:44.938Z,100.00
2022-09-16T18:29:15.741Z,100.00
2022-09-16T18:31:46.045Z,100.00
2022-09-16T18:34:15.005Z,100.00
2022-09-16T18:36:43.172Z,100.00
2022-09-16T18:39:14.450Z,100.00
2022-09-16T18:41:43.331Z,100.00
2022-09-16T18:44:17.007Z,100.00
2022-09-16T18:46:44.470Z,100.00
2022-09-16T18:49:13.913Z,100.00
2022-09-16T18:51:48.488Z,100.00
2022-09-16T18:54:25.063Z,100.00
2022-09-16T18:56:53.226Z,100.00
2022-09-16T18:59:24.783Z,100.00
2022-09-16T19:01:54.383Z,100.00
2022-09-16T19:04:24.903Z,100.00
2022-09-16T19:06:54.726Z,100.00
2022-09-16T19:09:23.818Z,100.00
2022-09-16T19:11:56.219Z,100.00
2022-09-16T19:14:27.533Z,100.00
2022-09-16T19:16:55.452Z,100.00
2022-09-16T19:19:23.251Z,100.00
2022-09-16T19:21:50.512Z,100.00
2022-09-16T19:24:21.216Z,100.00
2022-09-16T19:26:48.908Z,100.00
2022-09-16T19:29:17.451Z,100.00
2022-09-16T19:31:47.221Z,100.00
2022-09-16T19:34:16.098Z,100.00
2022-09-16T19:36:44.051Z,100.00
2022-09-16T19:39:12.375Z,100.00
2022-09-16T19:41:40.670Z,100.00
2022-09-16T19:44:12.329Z,100.00
2022-09-16T19:46:42.633Z,100.00
2022-09-16T19:49:15.982Z,100.00
2022-09-16T19:51:43.509Z,100.00
2022-09-16T19:54:10.684Z,100.00
2022-09-16T19:56:38.029Z,100.00
2022-09-16T19:59:06.089Z,100.00
2022-09-16T20:01:35.328Z,100.00
2022-09-16T20:04:05.830Z,100.00
2022-09-16T20:06:36.361Z,100.00
2022-09-16T20:09:06.937Z,100.00
2022-09-16T20:11:37.097Z,100.00
2022-09-16T20:14:07.487Z,100.00
2022-09-16T20:16:37.862Z,100.00
2022-09-16T20:19:08.268Z,100.00
2022-09-16T20:21:35.883Z,100.00
2022-09-16T20:24:07.893Z,100.00
2022-09-16T20:26:36.190Z,100.00
2022-09-16T20:29:03.901Z,100.00
2022-09-16T20:31:33.654Z,100.00
2022-09-16T20:34:01.838Z,100.00
2022-09-16T20:36:30.849Z,100.00
2022-09-16T20:39:01.313Z,100.00
2022-09-16T20:41:31.302Z,100.00
2022-09-16T20:43:59.508Z,100.00
2022-09-16T20:46:37.318Z,100.00
2022-09-16T20:49:08.224Z,100.00
2022-09-16T20:51:35.356Z,100.00
2022-09-16T20:54:08.666Z,100.00
2022-09-16T20:56:39.096Z,100.00
2022-09-16T20:59:12.246Z,100.00
2022-09-16T21:01:41.668Z,100.00
2022-09-16T21:04:13.558Z,100.00
2022-09-16T21:06:40.777Z,100.00
2022-09-16T21:09:10.680Z,100.00
2022-09-16T21:11:38.741Z,100.00
2022-09-16T21:14:07.067Z,100.00
2022-09-16T21:16:36.736Z,100.00
2022-09-16T21:19:09.342Z,99.99
2022-09-16T21:21:39.789Z,100.00
2022-09-16T21:24:17.551Z,100.00
2022-09-16T21:26:46.163Z,100.00
2022-09-16T21:29:21.211Z,100.00
2022-09-16T21:31:49.044Z,99.89
2022-09-16T21:34:19.101Z,99.73
2022-09-16T21:36:46.916Z,99.75
2022-09-16T21:39:15.591Z,99.55
2022-09-16T21:41:47.224Z,99.63
2022-09-16T21:44:15.078Z,99.55
2022-09-16T21:46:46.420Z,99.74
2022-09-16T21:49:24.393Z,99.63
2022-09-16T21:51:54.143Z,98.32
2022-09-16T21:54:22.196Z,98.81
2022-09-16T21:56:50.343Z,99.51
2022-09-16T21:59:19.912Z,99.44
2022-09-16T22:01:49.630Z,99.58
2022-09-16T22:04:20.206Z,100.00
2022-09-16T22:06:48.895Z,99.89
2022-09-16T22:09:16.108Z,99.34
2022-09-16T22:11:43.702Z,100.00
2022-09-16T22:14:11.357Z,100.00
2022-09-16T22:16:39.756Z,100.00
2022-09-16T22:19:09.436Z,100.00
2022-09-16T22:21:39.843Z,100.00
2022-09-16T22:24:07.624Z,100.00
2022-09-16T22:26:35.555Z,100.00
2022-09-16T22:29:03.034Z,100.00
2022-09-16T22:31:32.109Z,100.00
2022-09-16T22:34:01.844Z,100.00
2022-09-16T22:36:31.709Z,100.00
2022-09-16T22:39:01.602Z,100.00
2022-09-16T22:41:29.227Z,100.00
2022-09-16T22:43:56.417Z,100.00
2022-09-16T22:46:29.494Z,100.00
2022-09-16T22:48:58.315Z,100.00
2022-09-16T22:51:26.654Z,100.00
2022-09-16T22:53:54.300Z,100.00
2022-09-16T22:56:28.447Z,100.00
2022-09-16T22:58:56.829Z,100.00
2022-09-16T23:01:27.152Z,100.00
2022-09-16T23:03:57.339Z,100.00
2022-09-16T23:06:26.952Z,100.00
2022-09-16T23:08:54.515Z,100.00
2022-09-16T23:11:28.733Z,100.00
2022-09-16T23:13:56.708Z,100.00
2022-09-16T23:16:29.749Z,100.00
2022-09-16T23:18:59.701Z,100.00
2022-09-16T23:21:27.526Z,100.00
2022-09-16T23:23:56.665Z,100.00
2022-09-16T23:26:26.578Z,100.00
2022-09-16T23:28:56.242Z,100.00
2022-09-16T23:31:26.611Z,100.00
2022-09-16T23:33:54.454Z,100.00
2022-09-16T23:36:24.363Z,100.00
2022-09-16T23:38:52.504Z,100.00
2022-09-16T23:41:22.469Z,100.00
2022-09-16T23:43:50.500Z,100.00
2022-09-16T23:46:21.567Z,100.00
2022-09-16T23:48:52.482Z,100.00
2022-09-16T23:51:24.713Z,100.00
2022-09-16T23:53:56.687Z,100.00
2022-09-16T23:56:23.985Z,100.00
2022-09-16T23:58:51.285Z,100.00
